createdAt,value
2022-11-15T00:00:53.998Z,100643.06
2022-11-15T00:03:23.532Z,100649.00
2022-11-15T00:05:50.311Z,100653.34
2022-11-15T00:08:17.137Z,100650.69
2022-11-15T00:10:43.886Z,100638.09
2022-11-15T00:13:13.438Z,100655.66
2022-11-15T00:15:41.671Z,100651.19
2022-11-15T00:18:14.084Z,100645.38
2022-11-15T00:20:40.829Z,100644.03
2022-11-15T00:23:07.806Z,100653.50
2022-11-15T00:25:34.548Z,100650.00
2022-11-15T00:28:01.399Z,100637.09
2022-11-15T00:30:28.507Z,100637.91
2022-11-15T00:32:55.503Z,100612.88
2022-11-15T00:35:22.416Z,100620.34
2022-11-15T00:37:48.903Z,100620.34
2022-11-15T00:40:16.268Z,100637.06
2022-11-15T00:42:43.065Z,100625.31
2022-11-15T00:45:10.767Z,100628.13
2022-11-15T00:47:37.201Z,100611.19
2022-11-15T00:50:04.091Z,100625.78
2022-11-15T00:52:30.598Z,100616.00
2022-11-15T00:54:57.057Z,100613.19
2022-11-15T00:57:23.601Z,100601.41
2022-11-15T00:59:49.961Z,100602.22
2022-11-15T01:02:16.376Z,100597.09
2022-11-15T01:04:42.736Z,100608.53
2022-11-15T01:07:09.226Z,100604.72
2022-11-15T01:09:35.746Z,100602.91
2022-11-15T01:12:02.167Z,100601.72
2022-11-15T01:14:28.598Z,100595.56
2022-11-15T01:16:55.058Z,100594.75
2022-11-15T01:19:21.640Z,100591.94
2022-11-15T01:21:50.802Z,100585.78
2022-11-15T01:24:17.385Z,100591.28
2022-11-15T01:26:43.752Z,100587.44
2022-11-15T01:29:10.252Z,100588.41
2022-11-15T01:31:36.645Z,100584.94
2022-11-15T01:34:04.124Z,100578.81
2022-11-15T01:36:30.518Z,100568.69
2022-11-15T01:39:00.484Z,100573.97
2022-11-15T01:41:30.364Z,100577.16
2022-11-15T01:44:32.204Z,100563.50
2022-11-15T01:47:01.838Z,100559.53
2022-11-15T01:49:31.179Z,100562.97
2022-11-15T01:51:58.404Z,100547.22
2022-11-15T01:54:25.663Z,100558.31
2022-11-15T01:56:57.636Z,100552.84
2022-11-15T01:59:24.337Z,100554.50
2022-11-15T02:01:51.461Z,100550.84
2022-11-15T02:04:23.783Z,100543.34
2022-11-15T02:06:50.499Z,100538.72
2022-11-15T02:09:18.109Z,100538.34
2022-11-15T02:11:45.945Z,100531.84
2022-11-15T02:14:15.412Z,100522.38
2022-11-15T02:17:26.696Z,100525.50
2022-11-15T02:20:16.872Z,100523.16
2022-11-15T02:23:06.525Z,100519.53
2022-11-15T02:26:08.567Z,100515.31
2022-11-15T02:29:09.804Z,100504.50
2022-11-15T02:32:07.136Z,100505.41
2022-11-15T02:34:46.521Z,100494.34
2022-11-15T02:37:22.353Z,100492.28
2022-11-15T02:39:57.661Z,100491.81
2022-11-15T02:42:53.542Z,100493.97
2022-11-15T02:45:34.553Z,100493.59
2022-11-15T02:48:03.469Z,100486.56
2022-11-15T02:50:32.763Z,100479.94
2022-11-15T02:52:59.188Z,100481.31
2022-11-15T02:55:42.303Z,100487.25
2022-11-15T02:58:29.125Z,100480.97
2022-11-15T03:01:07.343Z,100482.59
2022-11-15T03:03:55.615Z,100484.38
2022-11-15T03:06:28.125Z,100481.16
2022-11-15T03:09:25.205Z,100480.28
2022-11-15T03:12:00.353Z,100476.69
2022-11-15T03:14:31.719Z,100471.66
2022-11-15T03:17:10.827Z,100474.50
2022-11-15T03:19:45.857Z,100465.31
2022-11-15T03:22:17.613Z,100470.13
2022-11-15T03:24:46.433Z,100463.44
2022-11-15T03:27:18.254Z,100463.53
2022-11-15T03:29:51.632Z,100463.25
2022-11-15T03:32:26.127Z,100462.94
2022-11-15T03:35:03.847Z,100461.50
2022-11-15T03:37:47.547Z,100468.56
2022-11-15T03:40:14.589Z,100464.69
2022-11-15T03:42:49.695Z,100470.84
2022-11-15T03:45:34.445Z,100469.38
2022-11-15T03:48:09.828Z,100466.81
2022-11-15T03:50:36.565Z,100466.53
2022-11-15T03:53:03.497Z,100459.19
2022-11-15T03:55:33.592Z,100464.63
2022-11-15T03:58:01.877Z,100452.03
2022-11-15T04:00:29.350Z,100454.44
2022-11-15T04:02:55.975Z,100449.84
2022-11-15T04:05:22.521Z,100456.81
2022-11-15T04:07:48.954Z,100455.97
2022-11-15T04:10:15.817Z,100448.94
2022-11-15T04:12:47.240Z,100451.41
2022-11-15T04:15:16.472Z,100457.53
2022-11-15T04:17:45.794Z,100457.03
2022-11-15T04:20:39.784Z,100450.53
2022-11-15T04:23:44.493Z,100449.75
2022-11-15T04:26:16.914Z,100448.75
2022-11-15T04:29:01.703Z,100451.97
2022-11-15T04:31:28.673Z,100453.81
2022-11-15T04:33:56.390Z,100449.63
2022-11-15T04:36:41.633Z,100451.88
2022-11-15T04:39:08.302Z,100454.78
2022-11-15T04:41:34.888Z,100461.81
2022-11-15T04:44:01.388Z,100458.16
2022-11-15T04:46:27.945Z,100450.38
2022-11-15T04:48:58.576Z,100451.75
2022-11-15T04:51:25.644Z,100428.78
2022-11-15T04:53:52.067Z,100442.97
2022-11-15T04:56:19.717Z,100437.38
2022-11-15T04:58:46.112Z,100436.19
2022-11-15T05:01:17.907Z,100441.50
2022-11-15T05:04:04.246Z,100445.81
2022-11-15T05:06:31.449Z,100437.34
2022-11-15T05:08:57.991Z,100440.59
2022-11-15T05:11:24.936Z,100447.53
2022-11-15T05:13:51.474Z,100450.66
2022-11-15T05:16:17.881Z,100452.03
2022-11-15T05:18:44.422Z,100454.25
2022-11-15T05:21:13.615Z,100462.22
2022-11-15T05:23:40.909Z,100461.25
2022-11-15T05:26:09.440Z,100470.00
2022-11-15T05:28:37.535Z,100464.63
2022-11-15T05:31:09.479Z,100470.00
2022-11-15T05:33:40.580Z,100464.16
2022-11-15T05:36:32.643Z,100465.50
2022-11-15T05:38:59.167Z,100474.31
2022-11-15T05:41:31.104Z,100475.13
2022-11-15T05:43:58.382Z,100477.78
2022-11-15T05:46:25.137Z,100472.63
2022-11-15T05:48:53.470Z,100479.19
2022-11-15T05:51:23.580Z,100481.28
2022-11-15T05:53:52.111Z,100474.09
2022-11-15T05:56:18.551Z,100477.88
2022-11-15T05:58:45.150Z,100483.69
2022-11-15T06:01:11.722Z,100475.59
2022-11-15T06:03:38.151Z,100476.81
2022-11-15T06:06:04.894Z,100477.59
2022-11-15T06:08:31.340Z,100476.78
2022-11-15T06:10:57.872Z,100482.75
2022-11-15T06:13:24.398Z,100483.38
2022-11-15T06:15:50.855Z,100484.59
2022-11-15T06:18:17.290Z,100490.09
2022-11-15T06:20:43.772Z,100488.25
2022-11-15T06:23:10.247Z,100496.06
2022-11-15T06:25:36.613Z,100490.84
2022-11-15T06:28:03.139Z,100494.16
2022-11-15T06:30:29.619Z,100492.59
2022-11-15T06:33:01.010Z,100493.97
2022-11-15T06:35:27.497Z,100494.06
2022-11-15T06:37:54.038Z,100485.31
2022-11-15T06:40:20.468Z,100489.78
2022-11-15T06:42:46.904Z,100479.53
2022-11-15T06:45:13.351Z,100490.63
2022-11-15T06:47:47.589Z,100495.91
2022-11-15T06:50:14.291Z,100506.34
2022-11-15T06:52:40.741Z,100505.84
2022-11-15T06:55:07.925Z,100518.50
2022-11-15T06:57:34.459Z,100516.13
2022-11-15T07:00:00.915Z,100516.31
2022-11-15T07:02:27.293Z,100514.47
2022-11-15T07:04:53.704Z,100508.94
2022-11-15T07:07:20.208Z,100498.16
2022-11-15T07:09:46.631Z,100506.41
2022-11-15T07:12:13.062Z,100511.56
2022-11-15T07:14:39.500Z,100514.03
2022-11-15T07:17:06.089Z,100511.06
2022-11-15T07:19:32.771Z,100510.44
2022-11-15T07:21:59.322Z,100514.19
2022-11-15T07:24:25.766Z,100506.94
2022-11-15T07:26:52.401Z,100509.00
2022-11-15T07:29:19.008Z,100497.34
2022-11-15T07:31:45.431Z,100499.88
2022-11-15T07:34:12.003Z,100505.00
2022-11-15T07:36:38.445Z,100495.38
2022-11-15T07:39:04.837Z,100489.84
2022-11-15T07:41:31.389Z,100493.41
2022-11-15T07:43:58.568Z,100499.97
2022-11-15T07:46:29.078Z,100491.59
2022-11-15T07:48:55.531Z,100499.28
2022-11-15T07:51:21.928Z,100485.56
2022-11-15T07:53:48.361Z,100486.69
2022-11-15T07:56:14.777Z,100470.34
2022-11-15T07:58:41.881Z,100486.44
2022-11-15T08:01:10.575Z,100478.91
2022-11-15T08:03:38.177Z,100473.38
2022-11-15T08:06:04.984Z,100471.53
2022-11-15T08:08:31.555Z,100479.84
2022-11-15T08:11:01.562Z,100474.69
2022-11-15T08:13:28.600Z,100465.09
2022-11-15T08:16:02.803Z,100464.72
2022-11-15T08:18:29.483Z,100466.06
2022-11-15T08:21:00.833Z,100463.44
2022-11-15T08:23:27.325Z,100463.09
2022-11-15T08:25:53.770Z,100459.25
2022-11-15T08:28:20.255Z,100441.22
2022-11-15T08:30:46.672Z,100449.47
2022-11-15T08:33:14.942Z,100440.69
2022-11-15T08:35:42.224Z,100444.44
2022-11-15T08:38:08.864Z,100439.72
2022-11-15T08:40:36.246Z,100421.44
2022-11-15T08:43:03.624Z,100437.31
2022-11-15T08:45:31.453Z,100437.34
2022-11-15T08:47:58.062Z,100434.28
2022-11-15T08:50:24.552Z,100432.00
2022-11-15T08:52:51.118Z,100431.59
2022-11-15T08:55:17.942Z,100427.91
2022-11-15T08:57:44.618Z,100427.13
2022-11-15T09:00:12.774Z,100432.06
2022-11-15T09:02:40.713Z,100430.81
2022-11-15T09:05:08.446Z,100429.22
2022-11-15T09:07:35.268Z,100435.19
2022-11-15T09:10:01.819Z,100424.09
2022-11-15T09:12:28.343Z,100431.34
2022-11-15T09:14:54.921Z,100442.25
2022-11-15T09:17:24.633Z,100427.63
2022-11-15T09:19:51.810Z,100432.59
2022-11-15T09:22:18.831Z,100432.81
2022-11-15T09:24:45.364Z,100421.56
2022-11-15T09:27:11.860Z,100427.91
2022-11-15T09:29:38.265Z,100428.53
2022-11-15T09:32:05.044Z,100431.06
2022-11-15T09:34:31.427Z,100424.25
2022-11-15T09:36:57.917Z,100425.72
2022-11-15T09:39:24.414Z,100430.22
2022-11-15T09:42:15.613Z,100437.88
2022-11-15T09:45:00.635Z,100421.84
2022-11-15T09:47:58.589Z,100419.38
2022-11-15T09:50:35.326Z,100416.25
2022-11-15T09:53:02.127Z,100405.09
2022-11-15T09:55:36.999Z,100414.53
2022-11-15T09:58:36.806Z,100405.47
2022-11-15T10:01:09.071Z,100401.78
2022-11-15T10:03:42.672Z,100379.13
2022-11-15T10:06:13.824Z,100389.00
2022-11-15T10:08:54.194Z,100376.28
2022-11-15T10:11:40.430Z,100367.16
2022-11-15T10:14:14.663Z,100352.28
2022-11-15T10:17:10.587Z,100340.88
2022-11-15T10:19:41.563Z,100343.03
2022-11-15T10:22:23.394Z,100346.63
2022-11-15T10:24:53.231Z,100342.09
2022-11-15T10:27:20.730Z,100339.75
2022-11-15T10:29:49.468Z,100343.50
2022-11-15T10:32:19.004Z,100332.88
2022-11-15T10:34:46.066Z,100329.75
2022-11-15T10:37:12.530Z,100316.53
2022-11-15T10:39:39.328Z,100324.97
2022-11-15T10:42:19.263Z,100317.25
2022-11-15T10:44:46.397Z,100305.94
2022-11-15T10:47:38.867Z,100298.22
2022-11-15T10:50:26.601Z,100296.13
2022-11-15T10:52:53.390Z,100286.25
2022-11-15T10:55:27.317Z,100297.38
2022-11-15T10:57:56.674Z,100298.03
2022-11-15T11:00:23.055Z,100296.75
2022-11-15T11:03:02.987Z,100290.56
2022-11-15T11:05:38.126Z,100293.03
2022-11-15T11:08:14.013Z,100299.56
2022-11-15T11:11:02.788Z,100311.06
2022-11-15T11:13:36.049Z,100306.47
2022-11-15T11:16:06.491Z,100302.53
2022-11-15T11:18:56.438Z,100308.56
2022-11-15T11:21:50.648Z,100295.16
2022-11-15T11:24:28.719Z,100302.22
2022-11-15T11:27:09.627Z,100277.69
2022-11-15T11:29:54.128Z,100267.81
2022-11-15T11:32:44.848Z,100257.22
2022-11-15T11:35:21.321Z,100241.84
2022-11-15T11:37:53.516Z,100239.00
2022-11-15T11:40:35.939Z,100218.47
2022-11-15T11:43:29.823Z,100230.38
2022-11-15T11:46:18.760Z,100235.41
2022-11-15T11:48:49.921Z,100229.41
2022-11-15T11:51:21.961Z,100232.03
2022-11-15T11:54:05.006Z,100234.41
2022-11-15T11:56:36.371Z,100227.19
2022-11-15T11:59:22.339Z,100214.44
2022-11-15T12:01:48.903Z,100216.00
2022-11-15T12:04:15.414Z,100201.09
2022-11-15T12:06:52.911Z,100186.78
2022-11-15T12:09:31.514Z,100203.84
2022-11-15T12:12:36.867Z,100195.66
2022-11-15T12:15:48.281Z,100188.00
2022-11-15T12:18:17.322Z,100182.47
2022-11-15T12:20:57.496Z,100175.09
2022-11-15T12:23:32.017Z,100166.91
2022-11-15T12:26:21.715Z,100173.25
2022-11-15T12:29:07.807Z,100169.16
2022-11-15T12:31:35.277Z,100177.19
2022-11-15T12:34:07.598Z,100153.63
2022-11-15T12:36:40.454Z,100153.81
2022-11-15T12:39:11.735Z,100150.06
2022-11-15T12:42:04.997Z,100136.53
2022-11-15T12:44:31.506Z,100135.88
2022-11-15T12:46:57.837Z,100134.47
2022-11-15T12:49:24.197Z,100128.31
2022-11-15T12:51:51.824Z,100128.25
2022-11-15T12:54:24.402Z,100133.16
2022-11-15T12:57:08.823Z,100131.31
2022-11-15T13:00:05.205Z,100101.97
2022-11-15T13:02:34.616Z,100113.13
2022-11-15T13:05:16.044Z,100106.75
2022-11-15T13:07:42.404Z,100105.94
2022-11-15T13:10:28.108Z,100095.44
2022-11-15T13:12:59.701Z,100095.22
2022-11-15T13:15:38.214Z,100090.69
2022-11-15T13:18:40.379Z,100082.66
2022-11-15T13:21:40.360Z,100061.97
2022-11-15T13:24:13.885Z,100081.25
2022-11-15T13:26:41.070Z,100077.22
2022-11-15T13:29:16.890Z,100079.91
2022-11-15T13:31:44.816Z,100064.06
2022-11-15T13:37:20.756Z,100057.88
2022-11-15T13:39:48.988Z,100055.88
2022-11-15T13:42:20.980Z,100049.56
2022-11-15T13:44:57.848Z,100033.63
2022-11-15T13:47:30.846Z,100040.59
2022-11-15T13:50:02.209Z,100031.81
2022-11-15T13:52:33.747Z,100033.47
2022-11-15T13:55:05.677Z,100025.88
2022-11-15T13:57:45.467Z,100014.59
2022-11-15T14:00:35.828Z,100008.88
2022-11-15T14:03:22.659Z,99998.38
2022-11-15T14:06:04.503Z,99997.34
2022-11-15T14:08:31.494Z,99995.09
2022-11-15T14:11:10.180Z,99988.94
2022-11-15T14:13:36.739Z,99979.84
2022-11-15T14:16:17.560Z,99976.16
2022-11-15T14:18:45.640Z,99982.13
2022-11-15T14:21:12.413Z,99965.31
2022-11-15T14:23:39.175Z,99962.63
2022-11-15T14:26:11.409Z,99961.81
2022-11-15T14:28:41.407Z,99948.56
2022-11-15T14:31:13.985Z,99955.69
2022-11-15T14:33:41.101Z,99950.19
2022-11-15T14:36:13.649Z,99938.28
2022-11-15T14:38:40.367Z,99953.91
2022-11-15T14:41:18.386Z,99938.91
2022-11-15T14:43:44.854Z,99935.81
2022-11-15T14:46:11.338Z,99918.34
2022-11-15T14:48:37.734Z,99930.00
2022-11-15T14:51:04.199Z,99914.41
2022-11-15T14:53:30.620Z,99917.47
2022-11-15T14:55:59.131Z,99920.94
2022-11-15T14:58:25.527Z,99910.69
2022-11-15T15:00:51.984Z,99902.06
2022-11-15T15:03:18.389Z,99899.63
2022-11-15T15:05:45.538Z,99900.81
2022-11-15T15:08:13.149Z,99893.03
2022-11-15T15:10:43.423Z,99896.72
2022-11-15T15:13:25.100Z,99891.78
2022-11-15T15:15:52.852Z,99898.38
2022-11-15T15:18:28.026Z,99893.03
2022-11-15T15:20:58.334Z,99885.84
2022-11-15T15:23:26.564Z,99886.44
2022-11-15T15:25:53.752Z,99884.81
2022-11-15T15:28:20.188Z,99879.09
2022-11-15T15:30:46.697Z,99874.53
2022-11-15T15:33:13.216Z,99877.66
2022-11-15T15:35:39.640Z,99885.25
2022-11-15T15:38:06.452Z,99883.16
2022-11-15T15:40:34.193Z,99881.31
2022-11-15T15:43:01.062Z,99884.22
2022-11-15T15:45:28.681Z,99884.00
2022-11-15T15:47:55.493Z,99884.22
2022-11-15T15:50:34.166Z,99880.50
2022-11-15T15:53:03.155Z,99866.31
2022-11-15T15:55:29.909Z,99873.38
2022-11-15T15:57:56.408Z,99871.72
2022-11-15T16:00:25.610Z,99871.00
2022-11-15T16:02:53.397Z,99873.50
2022-11-15T16:05:19.974Z,99872.31
2022-11-15T16:07:48.260Z,99876.00
2022-11-15T16:10:33.062Z,99870.16
2022-11-15T16:12:59.545Z,99875.25
2022-11-15T16:15:30.012Z,99878.00
2022-11-15T16:18:01.461Z,99876.56
2022-11-15T16:20:34.599Z,99867.94
2022-11-15T16:23:07.633Z,99869.81
2022-11-15T16:25:43.040Z,99874.19
2022-11-15T16:28:29.605Z,99880.75
2022-11-15T16:31:02.296Z,99878.31
2022-11-15T16:33:29.033Z,99865.63
2022-11-15T16:35:55.453Z,99881.63
2022-11-15T16:38:21.869Z,99877.53
2022-11-15T16:40:49.432Z,99863.59
2022-11-15T16:43:16.393Z,99862.88
2022-11-15T16:45:44.215Z,99879.28
2022-11-15T16:48:22.518Z,99878.69
2022-11-15T16:50:49.126Z,99875.84
2022-11-15T16:53:15.548Z,99875.69
2022-11-15T16:55:42.120Z,99878.34
2022-11-15T16:58:09.544Z,99877.34
2022-11-15T17:00:36.067Z,99867.50
2022-11-15T17:03:03.543Z,99870.00
2022-11-15T17:05:30.032Z,99870.19
2022-11-15T17:07:56.462Z,99871.44
2022-11-15T17:10:24.535Z,99872.06
2022-11-15T17:12:51.880Z,99863.44
2022-11-15T17:15:19.113Z,99861.59
2022-11-15T17:17:52.489Z,99854.22
2022-11-15T17:20:20.126Z,99850.75
2022-11-15T17:22:47.364Z,99862.66
2022-11-15T17:25:14.611Z,99858.97
2022-11-15T17:27:41.252Z,99853.63
2022-11-15T17:30:08.663Z,99862.00
2022-11-15T17:32:38.127Z,99856.47
2022-11-15T17:35:11.988Z,99851.56
2022-11-15T17:37:41.854Z,99854.22
2022-11-15T17:40:08.785Z,99850.53
2022-11-15T17:42:35.157Z,99847.66
2022-11-15T17:45:05.302Z,99844.38
2022-11-15T17:47:35.792Z,99847.44
2022-11-15T17:50:02.330Z,99832.88
2022-11-15T17:52:29.844Z,99834.09
2022-11-15T17:54:56.230Z,99840.81
2022-11-15T17:57:22.676Z,99841.03
2022-11-15T17:59:49.146Z,99832.81
2022-11-15T18:02:15.624Z,99833.66
2022-11-15T18:04:42.115Z,99836.91
2022-11-15T18:07:08.599Z,99834.25
2022-11-15T18:09:35.087Z,99826.03
2022-11-15T18:12:01.653Z,99827.69
2022-11-15T18:14:28.198Z,99830.13
2022-11-15T18:16:55.077Z,99825.59
2022-11-15T18:19:21.603Z,99817.34
2022-11-15T18:21:57.296Z,99820.41
2022-11-15T18:24:29.315Z,99816.28
2022-11-15T18:26:56.962Z,99823.91
2022-11-15T18:29:26.838Z,99820.56
2022-11-15T18:31:55.772Z,99826.53
2022-11-15T18:34:31.990Z,99823.63
2022-11-15T18:36:59.009Z,99819.34
2022-11-15T18:39:25.532Z,99813.13
2022-11-15T18:41:52.317Z,99812.31
2022-11-15T18:44:19.143Z,99805.09
2022-11-15T18:46:45.628Z,99803.69
2022-11-15T18:49:14.158Z,99804.31
2022-11-15T18:51:44.030Z,99804.09
2022-11-15T18:54:13.390Z,99805.47
2022-11-15T18:56:40.242Z,99804.16
2022-11-15T18:59:08.282Z,99812.69
2022-11-15T19:01:37.039Z,99809.81
2022-11-15T19:04:12.306Z,99812.25
2022-11-15T19:06:44.008Z,99803.47
2022-11-15T19:09:12.768Z,99805.72
2022-11-15T19:11:40.017Z,99796.72
2022-11-15T19:14:11.956Z,99807.34
2022-11-15T19:16:40.882Z,99798.97
2022-11-15T19:19:11.668Z,99790.13
2022-11-15T19:21:38.340Z,99775.63
2022-11-15T19:24:05.509Z,99793.78
2022-11-15T19:26:32.387Z,99784.78
2022-11-15T19:29:01.600Z,99791.22
2022-11-15T19:31:30.181Z,99786.41
2022-11-15T19:33:59.386Z,99788.28
2022-11-15T19:36:28.811Z,99793.41
2022-11-15T19:38:56.396Z,99785.00
2022-11-15T19:41:24.511Z,99778.25
2022-11-15T19:43:52.339Z,99781.06
2022-11-15T19:46:21.911Z,99788.84
2022-11-15T19:48:49.349Z,99787.63
2022-11-15T19:51:23.614Z,99779.22
2022-11-15T19:53:53.088Z,99779.59
2022-11-15T19:56:20.537Z,99782.88
2022-11-15T19:58:52.076Z,99784.50
2022-11-15T20:01:18.595Z,99786.94
2022-11-15T20:03:46.738Z,99772.63
2022-11-15T20:06:16.598Z,99777.69
2022-11-15T20:08:44.260Z,99776.88
2022-11-15T20:11:12.641Z,99775.63
2022-11-15T20:13:39.423Z,99767.00
2022-11-15T20:16:06.252Z,99763.34
2022-11-15T20:18:34.617Z,99767.88
2022-11-15T20:21:02.723Z,99760.53
2022-11-15T20:23:29.103Z,99765.97
2022-11-15T20:25:55.724Z,99771.31
2022-11-15T20:28:27.049Z,99756.94
2022-11-15T20:30:58.758Z,99766.78
2022-11-15T20:33:26.024Z,99760.41
2022-11-15T20:35:53.569Z,99771.91
2022-11-15T20:38:21.272Z,99752.59
2022-11-15T20:40:56.039Z,99759.06
2022-11-15T20:43:25.616Z,99767.00
2022-11-15T20:45:51.994Z,99772.94
2022-11-15T20:48:18.554Z,99769.38
2022-11-15T20:50:47.017Z,99764.34
2022-11-15T20:53:15.833Z,99754.41
2022-11-15T20:55:46.198Z,99757.81
2022-11-15T20:58:12.614Z,99742.44
2022-11-15T21:00:39.057Z,99735.88
2022-11-15T21:03:06.918Z,99731.16
2022-11-15T21:05:40.903Z,99734.22
2022-11-15T21:08:08.229Z,99729.69
2022-11-15T21:10:53.545Z,99738.09
2022-11-15T21:13:20.213Z,99735.19
2022-11-15T21:15:47.109Z,99732.28
2022-11-15T21:18:14.900Z,99723.31
2022-11-15T21:20:41.576Z,99720.84
2022-11-15T21:23:08.555Z,99709.28
2022-11-15T21:25:34.966Z,99724.28
2022-11-15T21:28:01.469Z,99727.78
2022-11-15T21:30:28.134Z,99719.16
2022-11-15T21:32:54.633Z,99716.94
2022-11-15T21:35:21.219Z,99707.19
2022-11-15T21:37:51.842Z,99708.84
2022-11-15T21:40:21.563Z,99711.75
2022-11-15T21:42:48.107Z,99710.91
2022-11-15T21:45:14.579Z,99701.50
2022-11-15T21:47:45.727Z,99686.88
2022-11-15T21:50:15.934Z,99699.84
2022-11-15T21:52:42.432Z,99695.13
2022-11-15T21:55:09.485Z,99707.28
2022-11-15T21:57:35.866Z,99692.06
2022-11-15T22:00:21.038Z,99686.28
2022-11-15T22:02:47.600Z,99687.47
2022-11-15T22:05:14.097Z,99686.19
2022-11-15T22:07:40.735Z,99686.19
2022-11-15T22:10:07.493Z,99690.28
2022-11-15T22:12:33.969Z,99677.38
2022-11-15T22:15:00.421Z,99682.03
2022-11-15T22:17:46.801Z,99678.41
2022-11-15T22:20:37.811Z,99676.09
2022-11-15T22:23:01.594Z,99673.06
2022-11-15T22:25:28.041Z,99669.13
2022-11-15T22:27:54.693Z,99659.69
2022-11-15T22:30:25.518Z,99663.50
2022-11-15T22:32:51.896Z,99656.44
2022-11-15T22:35:18.403Z,99665.19
2022-11-15T22:37:44.821Z,99662.75
2022-11-15T22:40:11.332Z,99659.38
2022-11-15T22:42:37.777Z,99656.16
2022-11-15T22:45:04.602Z,99654.41
2022-11-15T22:47:31.019Z,99650.34
2022-11-15T22:49:57.781Z,99646.41
2022-11-15T22:52:24.226Z,99646.47
2022-11-15T22:54:50.610Z,99641.69
2022-11-15T22:57:17.098Z,99644.41
2022-11-15T22:59:43.555Z,99657.16
2022-11-15T23:02:09.944Z,99648.28
2022-11-15T23:04:36.396Z,99650.22
2022-11-15T23:07:02.859Z,99647.09
2022-11-15T23:09:29.288Z,99640.47
2022-11-15T23:12:14.415Z,99633.84
2022-11-15T23:14:40.896Z,99639.09
2022-11-15T23:17:07.385Z,99638.09
2022-11-15T23:19:33.805Z,99637.59
2022-11-15T23:25:02.600Z,99631.03
2022-11-15T23:27:28.971Z,99644.56
2022-11-15T23:30:14.162Z,99639.66
2022-11-15T23:32:58.878Z,99641.72
2022-11-15T23:35:25.586Z,99640.03
2022-11-15T23:37:51.946Z,99636.91
2022-11-15T23:40:18.459Z,99633.63
2022-11-15T23:42:44.870Z,99640.16
2022-11-15T23:45:11.496Z,99627.91
2022-11-15T23:47:37.871Z,99629.56
2022-11-15T23:50:06.415Z,99630.97
2022-11-15T23:52:32.792Z,99628.75
2022-11-15T23:54:59.418Z,99626.66
2022-11-15T23:57:25.908Z,99625.25
2022-11-15T23:59:52.482Z,99624.34
